Terminal Aerodrome Forecast
Issued by NWS Sioux Falls, SD

Home | Current Version | Previous Version | Graphics & Text | Print | Product List | Glossary On
Versions: 1 2 3 4 5 6 7 8 9 10 11 12 13 14 15
000
FTUS43 KFSD 192337
TAFSUX
TAF
KSUX 192337Z 2000/2024 16012KT P6SM BKN200
     FM200200 16012KT P6SM BKN200 WS009/18042KT
     FM200700 16012KT P6SM OVC008 WS014/19040KT
     FM201000 16011KT 6SM BR OVC008
     FM201200 15009KT 4SM BR VCSH OVC008
     FM201500 17010KT P6SM OVC008
     FM201700 24011KT P6SM OVC035
     FM202000 31014KT P6SM BKN200=

USA.gov is the U.S. government's official web portal to all federal, state and local government web resources and services.